TAF and METAR

METAR for Fornebu Airport

ENFB 020150Z AUTO 19043KT 9999NDV BKN016/// 09/06 Q1011 W///S5
Report created 2. des 02:50
report generated by an automatic observation system. wind 43 knots from S (190°) visibility > 10km broken clouds (~75% cover) at 1600 feet Temperature 9° with dewpoint at 6° (Humidity 81.48%) Pressure 1011 hPa
No TAF available for Fornebu Airport
Fornebu Airport in Norway at 10m

Latest 5 airports